sensor_id;sensor_type;location;lat;lon;timestamp;pressure;altitude;pressure_sealevel;temperature;humidity
5455;BME280;2750;49.050;9.250;2023-03-26T00:03:05;98334.72;;;11.31;87.10
5455;BME280;2750;49.050;9.250;2023-03-26T00:08:07;98331.00;;;11.50;86.57
5455;BME280;2750;49.050;9.250;2023-03-26T00:13:10;98316.06;;;11.54;86.40
5455;BME280;2750;49.050;9.250;2023-03-26T00:18:13;98314.69;;;11.78;85.78
5455;BME280;2750;49.050;9.250;2023-03-26T00:23:14;98310.16;;;11.66;86.05
5455;BME280;2750;49.050;9.250;2023-03-26T00:28:16;98319.25;;;11.59;86.97
5455;BME280;2750;49.050;9.250;2023-03-26T00:33:22;98320.13;;;11.44;86.44
5455;BME280;2750;49.050;9.250;2023-03-26T00:38:25;98305.41;;;11.59;85.62
5455;BME280;2750;49.050;9.250;2023-03-26T00:43:26;98305.56;;;11.41;85.97
5455;BME280;2750;49.050;9.250;2023-03-26T00:48:33;98294.94;;;10.85;87.40
5455;BME280;2750;49.050;9.250;2023-03-26T00:53:38;98291.78;;;10.80;88.53
5455;BME280;2750;49.050;9.250;2023-03-26T00:58:40;98282.06;;;10.52;88.71
5455;BME280;2750;49.050;9.250;2023-03-26T01:03:44;98276.63;;;10.88;88.17
5455;BME280;2750;49.050;9.250;2023-03-26T01:08:48;98260.09;;;10.89;87.71
5455;BME280;2750;49.050;9.250;2023-03-26T01:13:55;98249.78;;;10.58;88.65
5455;BME280;2750;49.050;9.250;2023-03-26T01:18:58;98223.34;;;10.51;88.23
5455;BME280;2750;49.050;9.250;2023-03-26T01:24:02;98224.41;;;10.47;88.22
5455;BME280;2750;49.050;9.250;2023-03-26T01:29:05;98227.59;;;10.21;89.61
5455;BME280;2750;49.050;9.250;2023-03-26T01:34:14;98217.28;;;9.88;89.66
5455;BME280;2750;49.050;9.250;2023-03-26T01:39:23;98218.50;;;9.81;90.70
5455;BME280;2750;49.050;9.250;2023-03-26T01:44:34;98198.31;;;9.70;90.82
5455;BME280;2750;49.050;9.250;2023-03-26T01:49:37;98186.13;;;9.56;91.61
5455;BME280;2750;49.050;9.250;2023-03-26T01:54:40;98192.59;;;9.48;91.67
5455;BME280;2750;49.050;9.250;2023-03-26T01:59:59;98199.09;;;9.72;90.63
5455;BME280;2750;49.050;9.250;2023-03-26T02:05:15;98188.13;;;10.00;89.29
5455;BME280;2750;49.050;9.250;2023-03-26T02:10:23;98176.38;;;10.08;89.54
5455;BME280;2750;49.050;9.250;2023-03-26T02:15:25;98169.63;;;10.06;88.85
5455;BME280;2750;49.050;9.250;2023-03-26T02:20:27;98158.00;;;9.97;88.50
5455;BME280;2750;49.050;9.250;2023-03-26T02:25:31;98143.47;;;10.11;88.95
5455;BME280;2750;49.050;9.250;2023-03-26T02:30:34;98124.75;;;10.21;88.58
5455;BME280;2750;49.050;9.250;2023-03-26T02:35:37;98122.00;;;10.54;87.06
5455;BME280;2750;49.050;9.250;2023-03-26T02:40:40;98106.53;;;10.52;86.78
5455;BME280;2750;49.050;9.250;2023-03-26T02:45:42;98098.28;;;10.46;87.14
5455;BME280;2750;49.050;9.250;2023-03-26T02:50:43;98108.16;;;10.39;87.18
5455;BME280;2750;49.050;9.250;2023-03-26T02:55:46;98102.88;;;10.41;86.84
5455;BME280;2750;49.050;9.250;2023-03-26T03:00:48;98101.56;;;10.34;86.56
5455;BME280;2750;49.050;9.250;2023-03-26T03:05:50;98075.66;;;10.34;86.71
5455;BME280;2750;49.050;9.250;2023-03-26T03:10:57;98075.38;;;10.68;85.61
5455;BME280;2750;49.050;9.250;2023-03-26T03:15:58;98081.91;;;10.60;85.91
5455;BME280;2750;49.050;9.250;2023-03-26T03:21:00;98064.25;;;10.36;86.41
5455;BME280;2750;49.050;9.250;2023-03-26T03:26:03;98070.09;;;10.40;86.97
5455;BME280;2750;49.050;9.250;2023-03-26T03:31:06;98052.53;;;10.45;87.00
5455;BME280;2750;49.050;9.250;2023-03-26T03:36:08;98050.22;;;10.25;87.44
5455;BME280;2750;49.050;9.250;2023-03-26T03:41:12;98041.78;;;10.51;86.91
5455;BME280;2750;49.050;9.250;2023-03-26T03:46:13;98030.03;;;10.74;86.14
5455;BME280;2750;49.050;9.250;2023-03-26T03:51:15;98034.81;;;10.95;85.60
5455;BME280;2750;49.050;9.250;2023-03-26T03:56:18;98023.56;;;11.23;83.82
5455;BME280;2750;49.050;9.250;2023-03-26T04:01:23;98009.72;;;11.37;83.53
5455;BME280;2750;49.050;9.250;2023-03-26T04:06:25;97993.06;;;11.27;84.35
5455;BME280;2750;49.050;9.250;2023-03-26T04:11:30;98000.66;;;11.30;84.07
5455;BME280;2750;49.050;9.250;2023-03-26T04:16:32;97985.88;;;11.44;83.48
5455;BME280;2750;49.050;9.250;2023-03-26T04:21:33;97983.22;;;11.59;82.40
5455;BME280;2750;49.050;9.250;2023-03-26T04:26:38;97979.41;;;11.37;83.77
5455;BME280;2750;49.050;9.250;2023-03-26T04:31:40;97968.38;;;11.20;83.80
5455;BME280;2750;49.050;9.250;2023-03-26T04:36:42;97952.28;;;11.00;84.77
5455;BME280;2750;49.050;9.250;2023-03-26T04:41:47;97937.53;;;11.01;85.08
5455;BME280;2750;49.050;9.250;2023-03-26T04:46:48;97926.41;;;11.13;84.54
5455;BME280;2750;49.050;9.250;2023-03-26T04:51:52;97916.69;;;11.02;84.80
5455;BME280;2750;49.050;9.250;2023-03-26T04:56:57;97904.09;;;10.96;84.83
5455;BME280;2750;49.050;9.250;2023-03-26T05:02:00;97885.84;;;10.98;84.37
5455;BME280;2750;49.050;9.250;2023-03-26T05:07:01;97872.44;;;11.04;84.37
5455;BME280;2750;49.050;9.250;2023-03-26T05:12:05;97876.09;;;11.01;84.78
5455;BME280;2750;49.050;9.250;2023-03-26T05:17:06;97881.28;;;11.28;83.72
5455;BME280;2750;49.050;9.250;2023-03-26T05:22:10;97868.69;;;10.95;84.93
5455;BME280;2750;49.050;9.250;2023-03-26T05:27:14;97876.53;;;10.39;87.75
5455;BME280;2750;49.050;9.250;2023-03-26T05:32:19;97873.66;;;10.72;86.97
5455;BME280;2750;49.050;9.250;2023-03-26T05:37:20;97860.75;;;10.84;86.45
5455;BME280;2750;49.050;9.250;2023-03-26T05:42:25;97849.19;;;10.76;86.67
5455;BME280;2750;49.050;9.250;2023-03-26T05:47:27;97840.16;;;10.95;86.39
5455;BME280;2750;49.050;9.250;2023-03-26T05:52:28;97838.06;;;11.00;85.27
5455;BME280;2750;49.050;9.250;2023-03-26T05:57:31;97824.66;;;11.21;84.54
5455;BME280;2750;49.050;9.250;2023-03-26T06:02:34;97823.31;;;11.28;84.62
5455;BME280;2750;49.050;9.250;2023-03-26T06:07:36;97816.31;;;11.16;84.80
5455;BME280;2750;49.050;9.250;2023-03-26T06:12:39;97808.75;;;11.13;85.47
5455;BME280;2750;49.050;9.250;2023-03-26T06:17:41;97785.31;;;11.00;86.79
5455;BME280;2750;49.050;9.250;2023-03-26T06:22:42;97782.41;;;10.92;87.34
5455;BME280;2750;49.050;9.250;2023-03-26T06:27:45;97770.78;;;10.97;87.72
5455;BME280;2750;49.050;9.250;2023-03-26T06:32:47;97757.47;;;10.89;87.75
5455;BME280;2750;49.050;9.250;2023-03-26T06:37:49;97757.75;;;10.72;88.72
5455;BME280;2750;49.050;9.250;2023-03-26T06:42:51;97745.72;;;11.23;87.26
5455;BME280;2750;49.050;9.250;2023-03-26T06:47:55;97743.03;;;11.25;87.22
5455;BME280;2750;49.050;9.250;2023-03-26T06:52:56;97726.41;;;11.27;87.69
5455;BME280;2750;49.050;9.250;2023-03-26T06:57:59;97710.47;;;11.71;85.36
5455;BME280;2750;49.050;9.250;2023-03-26T07:03:02;97691.94;;;11.63;85.67
5455;BME280;2750;49.050;9.250;2023-03-26T07:08:04;97700.69;;;11.87;83.77
5455;BME280;2750;49.050;9.250;2023-03-26T07:13:07;97696.06;;;12.04;81.72
5455;BME280;2750;49.050;9.250;2023-03-26T07:18:09;97696.94;;;12.28;81.17
5455;BME280;2750;49.050;9.250;2023-03-26T07:23:11;97708.78;;;11.95;82.52
5455;BME280;2750;49.050;9.250;2023-03-26T07:28:22;97681.97;;;11.82;81.28
5455;BME280;2750;49.050;9.250;2023-03-26T07:33:29;97692.13;;;11.98;82.51
5455;BME280;2750;49.050;9.250;2023-03-26T07:38:40;97672.22;;;12.22;82.70
5455;BME280;2750;49.050;9.250;2023-03-26T07:43:55;97667.34;;;12.05;82.00
5455;BME280;2750;49.050;9.250;2023-03-26T07:49:03;97656.56;;;11.98;83.45
5455;BME280;2750;49.050;9.250;2023-03-26T07:54:07;97655.84;;;12.33;82.90
5455;BME280;2750;49.050;9.250;2023-03-26T07:59:19;97657.66;;;11.45;85.39
5455;BME280;2750;49.050;9.250;2023-03-26T08:04:41;97661.09;;;11.33;85.63
5455;BME280;2750;49.050;9.250;2023-03-26T08:09:58;97654.09;;;10.83;86.02
5455;BME280;2750;49.050;9.250;2023-03-26T08:15:11;97645.81;;;11.03;86.32
5455;BME280;2750;49.050;9.250;2023-03-26T08:20:23;97644.38;;;11.25;87.08
5455;BME280;2750;49.050;9.250;2023-03-26T08:25:30;97638.88;;;11.29;87.90
5455;BME280;2750;49.050;9.250;2023-03-26T08:30:35;97635.00;;;11.60;87.52
5455;BME280;2750;49.050;9.250;2023-03-26T08:35:37;97611.09;;;11.80;86.80
5455;BME280;2750;49.050;9.250;2023-03-26T08:41:11;97607.44;;;11.83;87.65
5455;BME280;2750;49.050;9.250;2023-03-26T08:46:53;97600.31;;;11.36;89.42
5455;BME280;2750;49.050;9.250;2023-03-26T08:52:27;97598.41;;;11.63;89.42
5455;BME280;2750;49.050;9.250;2023-03-26T08:57:55;97590.22;;;11.44;89.25
5455;BME280;2750;49.050;9.250;2023-03-26T09:03:26;97588.56;;;11.43;91.30
5455;BME280;2750;49.050;9.250;2023-03-26T09:08:56;97586.25;;;11.51;90.48
5455;BME280;2750;49.050;9.250;2023-03-26T09:14:31;97552.78;;;11.23;92.71
5455;BME280;2750;49.050;9.250;2023-03-26T09:20:13;97566.19;;;10.91;92.64
5455;BME280;2750;49.050;9.250;2023-03-26T09:26:00;97576.16;;;11.23;94.16
5455;BME280;2750;49.050;9.250;2023-03-26T09:31:26;97557.53;;;11.29;92.55
5455;BME280;2750;49.050;9.250;2023-03-26T09:36:52;97573.53;;;10.97;97.44
5455;BME280;2750;49.050;9.250;2023-03-26T09:42:02;97566.19;;;12.26;94.08
5455;BME280;2750;49.050;9.250;2023-03-26T09:47:56;97553.47;;;13.02;88.60
5455;BME280;2750;49.050;9.250;2023-03-26T09:53:21;97541.50;;;13.00;90.28
5455;BME280;2750;49.050;9.250;2023-03-26T09:58:59;97554.72;;;12.74;90.58
5455;BME280;2750;49.050;9.250;2023-03-26T10:04:29;97548.91;;;12.60;91.35
5455;BME280;2750;49.050;9.250;2023-03-26T10:09:47;97549.63;;;13.30;90.60
5455;BME280;2750;49.050;9.250;2023-03-26T10:15:02;97553.84;;;13.42;89.06
5455;BME280;2750;49.050;9.250;2023-03-26T10:20:32;97563.47;;;13.53;88.66
5455;BME280;2750;49.050;9.250;2023-03-26T10:25:49;97559.41;;;13.71;88.64
5455;BME280;2750;49.050;9.250;2023-03-26T10:31:05;97557.47;;;14.79;88.39
5455;BME280;2750;49.050;9.250;2023-03-26T10:36:21;97550.53;;;15.20;85.74
5455;BME280;2750;49.050;9.250;2023-03-26T10:41:37;97547.66;;;16.22;82.85
5455;BME280;2750;49.050;9.250;2023-03-26T10:52:17;97526.84;;;16.11;84.62
5455;BME280;2750;49.050;9.250;2023-03-26T10:57:37;97520.75;;;15.42;82.34
5455;BME280;2750;49.050;9.250;2023-03-26T11:02:45;97524.06;;;15.84;84.39
5455;BME280;2750;49.050;9.250;2023-03-26T11:07:57;97510.13;;;15.64;81.23
5455;BME280;2750;49.050;9.250;2023-03-26T11:13:12;97500.56;;;16.32;77.07
5455;BME280;2750;49.050;9.250;2023-03-26T11:18:18;97506.31;;;15.77;77.86
5455;BME280;2750;49.050;9.250;2023-03-26T11:23:33;97488.25;;;16.51;76.59
5455;BME280;2750;49.050;9.250;2023-03-26T11:29:12;97491.53;;;15.17;75.90
5455;BME280;2750;49.050;9.250;2023-03-26T11:34:17;97476.91;;;14.54;74.62
5455;BME280;2750;49.050;9.250;2023-03-26T11:39:23;97483.41;;;15.60;75.90
5455;BME280;2750;49.050;9.250;2023-03-26T11:44:31;97499.28;;;15.38;72.71
5455;BME280;2750;49.050;9.250;2023-03-26T11:49:35;97435.56;;;15.20;69.40
5455;BME280;2750;49.050;9.250;2023-03-26T11:54:37;97472.81;;;15.22;68.89
5455;BME280;2750;49.050;9.250;2023-03-26T11:59:45;97421.97;;;15.45;66.87
5455;BME280;2750;49.050;9.250;2023-03-26T12:04:51;97476.03;;;14.95;63.49
5455;BME280;2750;49.050;9.250;2023-03-26T12:09:56;97474.31;;;15.15;64.53
5455;BME280;2750;49.050;9.250;2023-03-26T12:14:59;97471.59;;;15.26;64.57
5455;BME280;2750;49.050;9.250;2023-03-26T12:20:29;97449.44;;;15.70;65.67
5455;BME280;2750;49.050;9.250;2023-03-26T12:25:33;97463.91;;;15.84;65.46
5455;BME280;2750;49.050;9.250;2023-03-26T12:30:37;97462.63;;;16.45;65.44
5455;BME280;2750;49.050;9.250;2023-03-26T12:35:39;97464.00;;;17.33;65.37
5455;BME280;2750;49.050;9.250;2023-03-26T12:40:41;97474.16;;;17.73;66.33
5455;BME280;2750;49.050;9.250;2023-03-26T12:45:49;97456.94;;;17.06;65.97
5455;BME280;2750;49.050;9.250;2023-03-26T12:51:06;97466.16;;;17.10;65.26
5455;BME280;2750;49.050;9.250;2023-03-26T12:56:18;97457.81;;;16.31;64.16
5455;BME280;2750;49.050;9.250;2023-03-26T13:01:28;97430.66;;;16.51;61.43
5455;BME280;2750;49.050;9.250;2023-03-26T13:06:39;97431.75;;;16.58;59.62
5455;BME280;2750;49.050;9.250;2023-03-26T13:11:52;97431.38;;;16.90;58.82
5455;BME280;2750;49.050;9.250;2023-03-26T13:17:00;97414.88;;;17.52;59.83
5455;BME280;2750;49.050;9.250;2023-03-26T13:22:12;97418.38;;;17.71;59.76
5455;BME280;2750;49.050;9.250;2023-03-26T13:27:28;97399.63;;;17.20;57.41
5455;BME280;2750;49.050;9.250;2023-03-26T13:32:46;97390.69;;;17.13;57.19
5455;BME280;2750;49.050;9.250;2023-03-26T13:37:55;97379.22;;;16.60;56.60
5455;BME280;2750;49.050;9.250;2023-03-26T13:43:15;97390.19;;;16.26;58.68
5455;BME280;2750;49.050;9.250;2023-03-26T13:48:23;97405.38;;;16.13;60.40
5455;BME280;2750;49.050;9.250;2023-03-26T13:53:32;97398.47;;;16.78;60.98
5455;BME280;2750;49.050;9.250;2023-03-26T13:58:37;97404.47;;;17.43;60.33
5455;BME280;2750;49.050;9.250;2023-03-26T14:03:49;97395.41;;;16.36;59.86
5455;BME280;2750;49.050;9.250;2023-03-26T14:08:57;97384.44;;;16.69;60.18
5455;BME280;2750;49.050;9.250;2023-03-26T14:14:07;97377.63;;;16.40;60.95
5455;BME280;2750;49.050;9.250;2023-03-26T14:19:33;97391.19;;;16.16;60.35
5455;BME280;2750;49.050;9.250;2023-03-26T14:24:57;97387.72;;;15.29;60.39
5455;BME280;2750;49.050;9.250;2023-03-26T14:35:47;97372.75;;;15.69;61.90
5455;BME280;2750;49.050;9.250;2023-03-26T14:40:56;97383.59;;;15.46;62.64
5455;BME280;2750;49.050;9.250;2023-03-26T14:46:19;97393.81;;;14.90;64.83
5455;BME280;2750;49.050;9.250;2023-03-26T14:51:35;97390.31;;;14.49;63.61
5455;BME280;2750;49.050;9.250;2023-03-26T14:56:57;97399.97;;;14.49;65.44
5455;BME280;2750;49.050;9.250;2023-03-26T15:08:23;97433.47;;;12.94;66.82
5455;BME280;2750;49.050;9.250;2023-03-26T15:13:48;97460.72;;;11.87;75.62
5455;BME280;2750;49.050;9.250;2023-03-26T15:19:30;97444.69;;;10.35;84.32
5455;BME280;2750;49.050;9.250;2023-03-26T15:36:31;97503.88;;;10.16;86.06
5455;BME280;2750;49.050;9.250;2023-03-26T15:41:41;97499.56;;;9.75;90.44
5455;BME280;2750;49.050;9.250;2023-03-26T15:47:00;97495.22;;;9.76;91.63
5455;BME280;2750;49.050;9.250;2023-03-26T15:52:24;97490.91;;;10.16;90.86
5455;BME280;2750;49.050;9.250;2023-03-26T15:57:31;97471.53;;;9.94;90.10
5455;BME280;2750;49.050;9.250;2023-03-26T16:02:42;97476.19;;;10.29;87.69
5455;BME280;2750;49.050;9.250;2023-03-26T16:07:56;97460.25;;;10.35;85.27
5455;BME280;2750;49.050;9.250;2023-03-26T16:13:28;97481.78;;;10.23;85.23
5455;BME280;2750;49.050;9.250;2023-03-26T16:18:35;97475.88;;;10.21;84.89
5455;BME280;2750;49.050;9.250;2023-03-26T16:23:51;97484.50;;;10.46;84.35
5455;BME280;2750;49.050;9.250;2023-03-26T16:29:16;97486.56;;;10.54;83.98
5455;BME280;2750;49.050;9.250;2023-03-26T16:34:27;97493.00;;;10.36;84.06
5455;BME280;2750;49.050;9.250;2023-03-26T16:39:39;97508.06;;;10.56;84.45
5455;BME280;2750;49.050;9.250;2023-03-26T16:44:44;97512.19;;;10.06;86.12
5455;BME280;2750;49.050;9.250;2023-03-26T16:50:02;97527.75;;;10.33;85.68
5455;BME280;2750;49.050;9.250;2023-03-26T16:55:18;97530.91;;;9.85;86.44
5455;BME280;2750;49.050;9.250;2023-03-26T17:00:42;97531.69;;;10.12;86.25
5455;BME280;2750;49.050;9.250;2023-03-26T17:06:05;97552.63;;;10.23;85.35
5455;BME280;2750;49.050;9.250;2023-03-26T17:11:20;97563.78;;;9.97;86.42
5455;BME280;2750;49.050;9.250;2023-03-26T17:16:25;97565.16;;;10.02;85.98
5455;BME280;2750;49.050;9.250;2023-03-26T17:21:39;97576.91;;;9.67;87.54
5455;BME280;2750;49.050;9.250;2023-03-26T17:26:51;97573.16;;;9.85;87.41
5455;BME280;2750;49.050;9.250;2023-03-26T17:31:59;97558.09;;;10.04;86.26
5455;BME280;2750;49.050;9.250;2023-03-26T17:37:09;97559.78;;;10.05;87.00
5455;BME280;2750;49.050;9.250;2023-03-26T17:42:17;97556.41;;;10.18;86.14
5455;BME280;2750;49.050;9.250;2023-03-26T17:47:25;97553.47;;;10.09;86.63
5455;BME280;2750;49.050;9.250;2023-03-26T17:52:53;97553.88;;;10.03;85.97
5455;BME280;2750;49.050;9.250;2023-03-26T17:57:57;97561.31;;;9.95;87.08
5455;BME280;2750;49.050;9.250;2023-03-26T18:03:03;97550.31;;;10.04;86.41
5455;BME280;2750;49.050;9.250;2023-03-26T18:08:39;97541.53;;;10.07;86.62
5455;BME280;2750;49.050;9.250;2023-03-26T18:13:58;97550.16;;;10.47;84.92
5455;BME280;2750;49.050;9.250;2023-03-26T18:19:09;97547.72;;;10.04;86.63
5455;BME280;2750;49.050;9.250;2023-03-26T18:24:21;97549.19;;;10.35;85.57
5455;BME280;2750;49.050;9.250;2023-03-26T18:29:26;97562.53;;;10.17;85.71
5455;BME280;2750;49.050;9.250;2023-03-26T18:34:29;97550.66;;;10.00;86.35
5455;BME280;2750;49.050;9.250;2023-03-26T18:39:33;97555.13;;;10.11;85.24
5455;BME280;2750;49.050;9.250;2023-03-26T18:44:34;97554.50;;;10.34;84.75
5455;BME280;2750;49.050;9.250;2023-03-26T18:49:36;97550.44;;;10.30;84.09
5455;BME280;2750;49.050;9.250;2023-03-26T18:54:40;97537.81;;;10.38;85.12
5455;BME280;2750;49.050;9.250;2023-03-26T18:59:42;97535.78;;;10.16;84.96
5455;BME280;2750;49.050;9.250;2023-03-26T19:04:45;97541.06;;;10.15;84.89
5455;BME280;2750;49.050;9.250;2023-03-26T19:09:51;97534.47;;;10.23;84.50
5455;BME280;2750;49.050;9.250;2023-03-26T19:15:01;97537.00;;;10.50;84.34
5455;BME280;2750;49.050;9.250;2023-03-26T19:20:05;97551.84;;;10.61;83.30
5455;BME280;2750;49.050;9.250;2023-03-26T19:25:20;97552.28;;;10.28;84.51
5455;BME280;2750;49.050;9.250;2023-03-26T19:30:27;97544.50;;;10.28;85.21
5455;BME280;2750;49.050;9.250;2023-03-26T19:35:36;97555.00;;;10.39;85.03
5455;BME280;2750;49.050;9.250;2023-03-26T19:40:40;97538.63;;;10.26;84.77
5455;BME280;2750;49.050;9.250;2023-03-26T19:45:42;97536.06;;;9.58;85.42
5455;BME280;2750;49.050;9.250;2023-03-26T19:50:53;97532.66;;;9.57;85.04
5455;BME280;2750;49.050;9.250;2023-03-26T19:55:58;97544.00;;;9.69;84.69
5455;BME280;2750;49.050;9.250;2023-03-26T20:00:59;97535.75;;;9.77;86.37
5455;BME280;2750;49.050;9.250;2023-03-26T20:06:01;97531.03;;;9.69;84.39
5455;BME280;2750;49.050;9.250;2023-03-26T20:11:05;97543.47;;;9.50;86.13
5455;BME280;2750;49.050;9.250;2023-03-26T20:16:18;97538.97;;;9.66;86.12
5455;BME280;2750;49.050;9.250;2023-03-26T20:21:23;97537.97;;;9.69;84.62
5455;BME280;2750;49.050;9.250;2023-03-26T20:26:26;97530.50;;;9.64;84.55
5455;BME280;2750;49.050;9.250;2023-03-26T20:31:28;97528.59;;;9.39;86.61
5455;BME280;2750;49.050;9.250;2023-03-26T20:36:30;97538.97;;;9.66;85.32
5455;BME280;2750;49.050;9.250;2023-03-26T20:41:35;97542.75;;;9.75;84.74
5455;BME280;2750;49.050;9.250;2023-03-26T20:46:40;97539.66;;;9.70;86.85
5455;BME280;2750;49.050;9.250;2023-03-26T20:51:43;97535.47;;;9.94;86.77
5455;BME280;2750;49.050;9.250;2023-03-26T20:56:47;97530.28;;;9.67;87.46
5455;BME280;2750;49.050;9.250;2023-03-26T21:01:49;97538.91;;;9.27;90.46
5455;BME280;2750;49.050;9.250;2023-03-26T21:06:50;97527.34;;;8.90;91.67
5455;BME280;2750;49.050;9.250;2023-03-26T21:11:59;97540.66;;;8.84;92.63
5455;BME280;2750;49.050;9.250;2023-03-26T21:17:02;97535.31;;;8.73;94.45
5455;BME280;2750;49.050;9.250;2023-03-26T21:22:14;97546.94;;;8.80;94.94
5455;BME280;2750;49.050;9.250;2023-03-26T21:27:23;97540.00;;;8.66;96.72
5455;BME280;2750;49.050;9.250;2023-03-26T21:32:28;97544.72;;;8.88;96.06
5455;BME280;2750;49.050;9.250;2023-03-26T21:37:31;97553.31;;;9.02;96.37
5455;BME280;2750;49.050;9.250;2023-03-26T21:42:34;97552.84;;;8.82;96.87
5455;BME280;2750;49.050;9.250;2023-03-26T21:47:37;97546.31;;;9.04;95.90
5455;BME280;2750;49.050;9.250;2023-03-26T21:52:39;97534.47;;;8.72;96.74
5455;BME280;2750;49.050;9.250;2023-03-26T21:57:57;97547.75;;;9.08;96.51
5455;BME280;2750;49.050;9.250;2023-03-26T22:03:08;97543.44;;;8.81;97.37
5455;BME280;2750;49.050;9.250;2023-03-26T22:08:20;97549.84;;;8.59;99.28
5455;BME280;2750;49.050;9.250;2023-03-26T22:13:26;97550.03;;;8.42;100.00
5455;BME280;2750;49.050;9.250;2023-03-26T22:18:27;97544.09;;;8.84;100.00
5455;BME280;2750;49.050;9.250;2023-03-26T22:23:29;97564.00;;;8.68;100.00
5455;BME280;2750;49.050;9.250;2023-03-26T22:28:34;97566.25;;;8.88;100.00
5455;BME280;2750;49.050;9.250;2023-03-26T22:33:37;97574.94;;;9.16;98.35
5455;BME280;2750;49.050;9.250;2023-03-26T22:38:39;97585.47;;;8.84;99.95
5455;BME280;2750;49.050;9.250;2023-03-26T22:43:42;97587.97;;;8.42;100.00
5455;BME280;2750;49.050;9.250;2023-03-26T22:48:45;97587.84;;;8.73;100.00
5455;BME280;2750;49.050;9.250;2023-03-26T22:53:48;97587.47;;;8.79;100.00
5455;BME280;2750;49.050;9.250;2023-03-26T22:58:51;97604.66;;;8.66;100.00
5455;BME280;2750;49.050;9.250;2023-03-26T23:03:53;97616.75;;;8.80;100.00
5455;BME280;2750;49.050;9.250;2023-03-26T23:08:54;97621.59;;;9.00;100.00
5455;BME280;2750;49.050;9.250;2023-03-26T23:13:57;97625.59;;;8.61;100.00
5455;BME280;2750;49.050;9.250;2023-03-26T23:18:59;97632.06;;;8.39;100.00
5455;BME280;2750;49.050;9.250;2023-03-26T23:24:01;97633.53;;;8.58;100.00
5455;BME280;2750;49.050;9.250;2023-03-26T23:29:05;97645.22;;;8.94;100.00
5455;BME280;2750;49.050;9.250;2023-03-26T23:34:06;97653.53;;;8.85;100.00
5455;BME280;2750;49.050;9.250;2023-03-26T23:39:09;97662.88;;;8.57;100.00
5455;BME280;2750;49.050;9.250;2023-03-26T23:44:12;97678.72;;;8.51;100.00
5455;BME280;2750;49.050;9.250;2023-03-26T23:49:15;97685.81;;;8.48;100.00
5455;BME280;2750;49.050;9.250;2023-03-26T23:54:16;97691.63;;;8.51;100.00
5455;BME280;2750;49.050;9.250;2023-03-26T23:59:19;97701.31;;;8.63;100.00
